Time;durP1;ratioP1;P1;durP2;ratioP2;P2;SDS_P1;SDS_P2;PMS_P1;PMS_P2;Temp;Humidity;BMP_temperature;BMP_pressure;BME280_temperature;BME280_humidity;BME280_pressure;Samples;Min_cycle;Max_cycle;Signal;HPM_P1;HPM_P2
2021/12/17 00:00:19;;;;;;;;;;;7.00;99.90;;;;;;5009273;28;20534;-69
2021/12/17 00:08:10;;;;;;;;;;;7.30;99.90;;;;;;5013637;28;20004;-70
2021/12/17 00:10:35;;;;;;;;;;;7.30;99.90;;;;;;5008105;28;19993;-69
2021/12/17 00:13:01;;;;;;;;;;;7.30;99.90;;;;;;5008733;28;19940;-71
2021/12/17 00:15:26;;;;;;;;;;;7.30;99.90;;;;;;5036851;23;19930;-71
2021/12/17 00:17:58;;;;;;;;;;;7.40;99.90;;;;;;4996595;28;20366;-69
2021/12/17 00:20:47;;;;;;;;;;;7.30;99.90;;;;;;5011676;28;19943;-68
2021/12/17 00:52:50;;;;;;;;;;;7.10;99.90;;;;;;4998414;28;19996;-67
2021/12/17 00:55:16;;;;;;;;;;;7.10;99.90;;;;;;5000137;28;19949;-70
2021/12/17 00:57:43;;;;;;;;;;;7.20;99.90;;;;;;5007228;28;20531;-68
2021/12/17 01:00:12;;;;;;;;;;;7.20;99.90;;;;;;5001402;28;19913;-67
2021/12/17 01:02:38;;;;;;;;;;;7.00;99.90;;;;;;5003458;28;19920;-67
2021/12/17 01:05:06;;;;;;;;;;;7.00;99.90;;;;;;5010128;28;19917;-68
2021/12/17 01:07:33;;;;;;;;;;;6.90;99.90;;;;;;4996863;28;20278;-67
2021/12/17 01:10:00;;;;;;;;;;;6.90;99.90;;;;;;5002412;28;19920;-68
2021/12/17 01:12:26;;;;;;;;;;;6.90;99.90;;;;;;5008713;28;19955;-66
2021/12/17 01:14:52;;;;;;;;;;;6.90;99.90;;;;;;5008041;28;19922;-68
2021/12/17 01:17:19;;;;;;;;;;;6.90;99.90;;;;;;5007499;28;19918;-70
2021/12/17 01:22:50;;;;;;;;;;;7.10;99.90;;;;;;5010856;28;19991;-66
2021/12/17 01:25:23;;;;;;;;;;;7.10;99.90;;;;;;5008177;28;19993;-66
2021/12/17 01:36:02;;;;;;;;;;;7.10;99.90;;;;;;5012457;28;20345;-70
2021/12/17 01:43:27;;;;;;;;;;;6.90;99.90;;;;;;5000466;28;19910;-68
2021/12/17 01:45:53;;;;;;;;;;;7.00;99.90;;;;;;5008284;28;20022;-69
2021/12/17 01:48:23;;;;;;;;;;;7.00;99.90;;;;;;5001705;28;19995;-68
2021/12/17 01:56:36;;;;;;;;;;;6.80;99.90;;;;;;5009151;28;20034;-69
2021/12/17 01:59:22;;;;;;;;;;;6.80;99.90;;;;;;5011194;28;19925;-67
2021/12/17 02:01:48;;;;;;;;;;;6.80;99.90;;;;;;5004284;28;19918;-68
2021/12/17 02:04:13;;;;;;;;;;;6.70;99.90;;;;;;5000999;28;20330;-68
2021/12/17 02:06:39;;;;;;;;;;;6.70;99.90;;;;;;5004159;28;20110;-66
2021/12/17 02:28:47;;;;;;;;;;;6.80;99.90;;;;;;5007540;28;20427;-69
2021/12/17 02:33:41;;;;;;;;;;;6.70;99.90;;;;;;5004579;28;19957;-69
2021/12/17 02:36:07;;;;;;;;;;;6.60;99.90;;;;;;5008570;28;19991;-67
2021/12/17 02:38:37;;;;;;;;;;;6.60;99.90;;;;;;5003043;28;19928;-70
2021/12/17 02:46:34;;;;;;;;;;;6.60;99.90;;;;;;5009130;28;19951;-69
2021/12/17 02:49:00;;;;;;;;;;;6.60;99.90;;;;;;5020339;28;20394;-67
2021/12/17 02:51:26;;;;;;;;;;;6.60;99.90;;;;;;5005843;28;19914;-67
2021/12/17 02:53:53;;;;;;;;;;;6.70;99.90;;;;;;5000654;28;19914;-67
2021/12/17 02:56:19;;;;;;;;;;;6.60;99.90;;;;;;5004317;28;20048;-65
2021/12/17 02:58:44;;;;;;;;;;;6.50;99.90;;;;;;5001402;28;19996;-70
2021/12/17 03:01:12;;;;;;;;;;;6.60;99.90;;;;;;4993724;28;20363;-69
2021/12/17 03:03:38;;;;;;;;;;;6.70;99.90;;;;;;5007246;28;20027;-71
2021/12/17 03:06:04;;;;;;;;;;;6.70;99.90;;;;;;5002818;28;19918;-69
2021/12/17 03:08:30;;;;;;;;;;;6.70;99.90;;;;;;5004389;28;19924;-68
2021/12/17 03:10:55;;;;;;;;;;;6.70;99.90;;;;;;5008609;28;19924;-69
2021/12/17 03:13:22;;;;;;;;;;;6.60;99.90;;;;;;5003482;28;20315;-69
2021/12/17 03:16:08;;;;;;;;;;;6.40;99.90;;;;;;5002459;28;19923;-69
2021/12/17 03:23:50;;;;;;;;;;;6.40;99.90;;;;;;5006930;28;19916;-69
2021/12/17 03:26:16;;;;;;;;;;;6.40;99.90;;;;;;5008155;28;19913;-68
2021/12/17 03:28:45;;;;;;;;;;;6.40;99.90;;;;;;5006218;28;20299;-69
2021/12/17 03:31:11;;;;;;;;;;;6.50;99.90;;;;;;4999979;28;19963;-70
2021/12/17 03:33:38;;;;;;;;;;;6.50;99.90;;;;;;4992498;28;19964;-69
2021/12/17 03:36:04;;;;;;;;;;;6.50;99.90;;;;;;5005306;28;20382;-69
2021/12/17 03:38:30;;;;;;;;;;;6.60;99.90;;;;;;5004129;28;19929;-69
2021/12/17 03:41:11;;;;;;;;;;;6.60;99.90;;;;;;5005714;28;20017;-70
2021/12/17 03:43:37;;;;;;;;;;;6.60;99.90;;;;;;5005948;28;20355;-69
2021/12/17 03:46:03;;;;;;;;;;;6.70;99.90;;;;;;5006114;28;19921;-69
2021/12/17 03:48:35;;;;;;;;;;;6.70;99.90;;;;;;5019975;28;20067;-70
2021/12/17 03:51:00;;;;;;;;;;;6.90;99.90;;;;;;5005139;28;19917;-70
2021/12/17 03:53:26;;;;;;;;;;;6.90;99.90;;;;;;5004347;28;20302;-69
2021/12/17 03:55:51;;;;;;;;;;;6.80;99.90;;;;;;4999653;28;19922;-69
2021/12/17 03:58:17;;;;;;;;;;;6.80;99.90;;;;;;5005643;28;19910;-69
2021/12/17 04:00:43;;;;;;;;;;;6.80;99.90;;;;;;4988837;28;19922;-69
2021/12/17 04:03:08;;;;;;;;;;;6.80;99.90;;;;;;5000678;28;19921;-69
2021/12/17 04:05:34;;;;;;;;;;;6.90;99.90;;;;;;5003299;28;19913;-69
2021/12/17 04:08:00;;;;;;;;;;;7.00;99.90;;;;;;4996026;28;19940;-69
2021/12/17 04:10:28;;;;;;;;;;;6.90;99.90;;;;;;5005626;28;20024;-69
2021/12/17 04:15:30;;;;;;;;;;;6.90;99.90;;;;;;5000973;28;20004;-68
2021/12/17 04:17:57;;;;;;;;;;;7.00;99.90;;;;;;4996459;28;20004;-68
2021/12/17 04:20:23;;;;;;;;;;;6.90;99.90;;;;;;5005353;28;19917;-68
2021/12/17 04:22:48;;;;;;;;;;;6.90;99.90;;;;;;5008500;28;19933;-68
2021/12/17 04:25:14;;;;;;;;;;;6.90;99.90;;;;;;5008309;28;19921;-70
2021/12/17 04:27:39;;;;;;;;;;;6.90;99.90;;;;;;5005792;28;19913;-70
2021/12/17 04:30:05;;;;;;;;;;;6.90;99.90;;;;;;5005136;28;19917;-68
2021/12/17 04:32:31;;;;;;;;;;;6.90;99.90;;;;;;5004356;28;19917;-69
2021/12/17 04:34:56;;;;;;;;;;;6.90;99.90;;;;;;5020639;28;20354;-68
2021/12/17 04:37:22;;;;;;;;;;;6.90;99.90;;;;;;5005680;28;20005;-70
2021/12/17 04:39:48;;;;;;;;;;;6.90;99.90;;;;;;4998015;28;19914;-69
2021/12/17 04:45:11;;;;;;;;;;;7.00;99.90;;;;;;4974539;28;19960;-67
2021/12/17 04:58:40;;;;;;;;;;;7.00;99.90;;;;;;4998386;28;20054;-68
2021/12/17 05:01:12;;;;;;;;;;;6.90;99.90;;;;;;5004695;28;20677;-67
2021/12/17 05:03:37;;;;;;;;;;;6.90;99.90;;;;;;5007262;28;20012;-67
2021/12/17 05:06:03;;;;;;;;;;;7.00;99.90;;;;;;5005689;28;20360;-68
2021/12/17 05:08:29;;;;;;;;;;;7.00;99.90;;;;;;5006736;28;19925;-69
2021/12/17 05:19:06;;;;;;;;;;;7.10;99.90;;;;;;5003826;28;19920;-69
2021/12/17 05:21:31;;;;;;;;;;;7.10;99.90;;;;;;5005006;28;19985;-66
2021/12/17 05:23:57;;;;;;;;;;;7.20;99.90;;;;;;5008286;28;19917;-66
2021/12/17 05:26:22;;;;;;;;;;;7.20;99.90;;;;;;5009337;28;20492;-68
2021/12/17 05:28:49;;;;;;;;;;;7.20;99.90;;;;;;5002407;28;19921;-67
2021/12/17 05:31:16;;;;;;;;;;;7.20;99.90;;;;;;5002805;28;19967;-68
2021/12/17 05:33:41;;;;;;;;;;;7.20;99.90;;;;;;4996481;28;19921;-66
2021/12/17 05:36:07;;;;;;;;;;;7.30;99.90;;;;;;4998091;28;19920;-68
2021/12/17 05:38:33;;;;;;;;;;;7.30;99.90;;;;;;4987595;28;19925;-67
2021/12/17 05:40:58;;;;;;;;;;;7.30;99.90;;;;;;4996323;28;19993;-68
2021/12/17 05:43:24;;;;;;;;;;;7.30;99.90;;;;;;5006745;28;19971;-68
2021/12/17 05:48:25;;;;;;;;;;;7.40;99.90;;;;;;5012733;28;20281;-65
2021/12/17 05:50:53;;;;;;;;;;;7.50;99.90;;;;;;5004883;28;19914;-65
2021/12/17 05:53:18;;;;;;;;;;;7.50;99.90;;;;;;5002816;28;19918;-66
2021/12/17 05:55:44;;;;;;;;;;;7.40;99.90;;;;;;5000150;28;20024;-68
2021/12/17 05:58:11;;;;;;;;;;;7.50;99.90;;;;;;5005427;28;20260;-68
2021/12/17 06:00:39;;;;;;;;;;;7.60;99.90;;;;;;5006648;28;19963;-69
2021/12/17 06:03:05;;;;;;;;;;;7.60;99.90;;;;;;5007573;28;19917;-69
2021/12/17 06:05:30;;;;;;;;;;;7.60;99.90;;;;;;5007765;28;19945;-68
2021/12/17 06:07:56;;;;;;;;;;;7.60;99.90;;;;;;5006076;28;19925;-68
2021/12/17 06:10:22;;;;;;;;;;;7.50;99.90;;;;;;5005656;28;19924;-66
2021/12/17 06:12:47;;;;;;;;;;;7.50;99.90;;;;;;5002254;28;19921;-67
2021/12/17 06:15:14;;;;;;;;;;;7.50;99.90;;;;;;4995027;28;19933;-67
2021/12/17 06:17:40;;;;;;;;;;;7.50;99.90;;;;;;5009443;28;19924;-67
2021/12/17 06:20:07;;;;;;;;;;;7.50;99.90;;;;;;5005198;28;20008;-67
2021/12/17 06:22:33;;;;;;;;;;;7.60;99.90;;;;;;5005560;28;19979;-67
2021/12/17 06:24:58;;;;;;;;;;;7.50;99.90;;;;;;5004370;28;20035;-69
2021/12/17 06:27:24;;;;;;;;;;;7.50;99.90;;;;;;5011516;28;20337;-67
2021/12/17 06:29:50;;;;;;;;;;;7.60;99.90;;;;;;5008624;28;19926;-67
2021/12/17 06:32:16;;;;;;;;;;;7.60;99.90;;;;;;5009383;28;19929;-66
2021/12/17 06:34:42;;;;;;;;;;;7.60;99.90;;;;;;5005354;28;19925;-69
2021/12/17 06:37:07;;;;;;;;;;;7.60;99.90;;;;;;5013318;28;19964;-68
2021/12/17 06:39:33;;;;;;;;;;;7.60;99.90;;;;;;5010446;28;19917;-67
2021/12/17 06:41:59;;;;;;;;;;;7.50;99.90;;;;;;5013794;28;20411;-69
2021/12/17 06:44:26;;;;;;;;;;;7.50;99.90;;;;;;5008439;28;19913;-68
2021/12/17 06:49:28;;;;;;;;;;;7.50;99.90;;;;;;5014725;28;19944;-67
2021/12/17 07:00:12;;;;;;;;;;;7.50;99.90;;;;;;5015642;28;19917;-69
2021/12/17 07:09:11;;;;;;;;;;;7.60;99.90;;;;;;5009335;28;19959;-71
2021/12/17 07:11:20;;;;;;;;;;;7.50;99.90;;;;;;5008870;28;20333;-69
2021/12/17 07:22:04;;;;;;;;;;;7.40;99.90;;;;;;5012893;28;20394;-69
2021/12/17 07:24:49;;;;;;;;;;;7.50;99.90;;;;;;5011186;28;20367;-70
2021/12/17 07:32:51;;;;;;;;;;;7.60;99.90;;;;;;5005366;28;20062;-70
2021/12/17 07:40:33;;;;;;;;;;;7.70;99.90;;;;;;5007427;28;19916;-67
2021/12/17 07:43:01;;;;;;;;;;;7.60;99.90;;;;;;5008012;28;19909;-70
2021/12/17 07:45:27;;;;;;;;;;;7.60;99.90;;;;;;5007878;28;20349;-71
2021/12/17 07:47:52;;;;;;;;;;;7.70;99.90;;;;;;5008225;28;20525;-68
2021/12/17 07:50:18;;;;;;;;;;;7.70;99.90;;;;;;5007901;28;19963;-69
2021/12/17 07:52:44;;;;;;;;;;;7.70;99.90;;;;;;5007550;28;19913;-70
2021/12/17 07:55:09;;;;;;;;;;;7.70;99.90;;;;;;5022182;28;20386;-70
2021/12/17 07:57:35;;;;;;;;;;;7.70;99.90;;;;;;5022657;28;19963;-69
2021/12/17 08:00:00;;;;;;;;;;;7.70;99.90;;;;;;5008218;28;19914;-69
2021/12/17 08:02:26;;;;;;;;;;;7.80;99.90;;;;;;5006168;28;20015;-70
2021/12/17 08:04:51;;;;;;;;;;;7.80;99.90;;;;;;5007859;28;19933;-71
2021/12/17 08:07:17;;;;;;;;;;;7.70;99.90;;;;;;4995979;28;20068;-69
2021/12/17 08:09:43;;;;;;;;;;;7.80;99.90;;;;;;4993278;28;20377;-71
2021/12/17 08:12:10;;;;;;;;;;;8.00;99.90;;;;;;4998714;28;19916;-70
2021/12/17 08:14:35;;;;;;;;;;;7.90;99.90;;;;;;5006610;28;19921;-72
2021/12/17 08:17:32;;;;;;;;;;;7.90;99.90;;;;;;5007271;28;20175;-70
2021/12/17 08:25:27;;;;;;;;;;;7.70;99.90;;;;;;5014584;28;19916;-73
2021/12/17 08:28:08;;;;;;;;;;;7.70;99.90;;;;;;5014947;28;20266;-71
2021/12/17 08:30:40;;;;;;;;;;;7.70;99.90;;;;;;5006652;28;20011;-69
2021/12/17 08:33:06;;;;;;;;;;;7.70;99.90;;;;;;5006726;28;20375;-69
2021/12/17 08:35:36;;;;;;;;;;;7.70;99.90;;;;;;5005966;28;19913;-70
2021/12/17 08:38:05;;;;;;;;;;;7.70;99.90;;;;;;5006391;28;19949;-68
2021/12/17 08:40:31;;;;;;;;;;;7.70;99.90;;;;;;5005345;28;20341;-69
2021/12/17 08:42:57;;;;;;;;;;;7.70;99.90;;;;;;5006088;28;20270;-72
2021/12/17 08:45:22;;;;;;;;;;;7.70;99.90;;;;;;5005723;28;19960;-71
2021/12/17 08:47:49;;;;;;;;;;;7.70;99.90;;;;;;5005486;28;19996;-70
2021/12/17 08:50:14;;;;;;;;;;;7.70;99.90;;;;;;5005231;28;20145;-70
2021/12/17 08:52:41;;;;;;;;;;;7.60;99.90;;;;;;5004291;28;19910;-70
2021/12/17 08:55:07;;;;;;;;;;;7.60;99.90;;;;;;5005319;28;20286;-71
2021/12/17 08:57:32;;;;;;;;;;;7.70;99.90;;;;;;5004293;28;20291;-70
2021/12/17 09:00:04;;;;;;;;;;;7.70;99.90;;;;;;5004373;28;19910;-73
2021/12/17 09:02:29;;;;;;;;;;;7.70;99.90;;;;;;5008602;28;19909;-70
2021/12/17 09:04:55;;;;;;;;;;;7.70;99.90;;;;;;5005230;28;19916;-74
2021/12/17 09:07:21;;;;;;;;;;;7.80;99.90;;;;;;5005108;28;19932;-70
2021/12/17 09:09:47;;;;;;;;;;;7.70;99.90;;;;;;5005905;28;19939;-71
2021/12/17 09:12:13;;;;;;;;;;;7.70;99.90;;;;;;5009651;28;19910;-72
2021/12/17 09:14:39;;;;;;;;;;;7.70;99.90;;;;;;4995087;28;19975;-70
2021/12/17 09:17:04;;;;;;;;;;;7.70;99.90;;;;;;4989791;28;19914;-69
2021/12/17 09:19:30;;;;;;;;;;;7.80;99.90;;;;;;4992053;28;19914;-73
2021/12/17 09:21:56;;;;;;;;;;;7.70;99.90;;;;;;5023306;28;20518;-74
2021/12/17 09:24:21;;;;;;;;;;;7.70;99.90;;;;;;5009005;28;19910;-71
2021/12/17 09:26:47;;;;;;;;;;;7.70;99.90;;;;;;5023346;28;19920;-69
2021/12/17 09:29:12;;;;;;;;;;;7.70;99.90;;;;;;5004333;28;19914;-72
2021/12/17 09:31:38;;;;;;;;;;;7.70;99.90;;;;;;4988265;28;20319;-70
2021/12/17 09:34:03;;;;;;;;;;;7.70;99.90;;;;;;5003648;28;20528;-71
2021/12/17 09:36:29;;;;;;;;;;;7.70;99.90;;;;;;4986597;28;20234;-71
2021/12/17 09:38:55;;;;;;;;;;;7.70;99.90;;;;;;5002948;28;19914;-71
2021/12/17 09:41:21;;;;;;;;;;;7.70;99.90;;;;;;5008175;28;19968;-72
2021/12/17 09:43:50;;;;;;;;;;;7.70;99.90;;;;;;5008194;28;20465;-72
2021/12/17 09:46:16;;;;;;;;;;;7.70;99.90;;;;;;5008858;28;19917;-73
2021/12/17 09:48:44;;;;;;;;;;;7.80;99.90;;;;;;5000869;28;20240;-75
2021/12/17 09:51:09;;;;;;;;;;;7.80;99.90;;;;;;5008915;28;20178;-72
2021/12/17 09:53:35;;;;;;;;;;;7.90;99.90;;;;;;5009666;28;20291;-70
2021/12/17 09:56:01;;;;;;;;;;;7.90;99.90;;;;;;4995246;28;19910;-70
2021/12/17 09:58:26;;;;;;;;;;;8.00;99.90;;;;;;5004322;28;19925;-70
2021/12/17 10:00:52;;;;;;;;;;;8.00;99.90;;;;;;4988905;28;20388;-73
2021/12/17 10:03:18;;;;;;;;;;;8.00;99.90;;;;;;5005400;28;19921;-70
2021/12/17 10:05:44;;;;;;;;;;;8.00;99.90;;;;;;4988307;28;20363;-72
2021/12/17 10:08:11;;;;;;;;;;;8.10;99.90;;;;;;4988868;28;19924;-68
2021/12/17 10:10:41;;;;;;;;;;;8.00;99.90;;;;;;4987948;28;19920;-69
2021/12/17 10:13:11;;;;;;;;;;;8.00;99.90;;;;;;4998181;28;19916;-72
2021/12/17 10:15:38;;;;;;;;;;;8.00;99.90;;;;;;5006383;28;19930;-72
2021/12/17 10:18:04;;;;;;;;;;;7.90;99.90;;;;;;5007625;28;19935;-70
2021/12/17 10:20:31;;;;;;;;;;;8.00;99.90;;;;;;5006903;28;20430;-71
2021/12/17 10:22:56;;;;;;;;;;;8.00;99.90;;;;;;5006782;28;19910;-72
2021/12/17 10:25:22;;;;;;;;;;;8.00;99.90;;;;;;5007241;28;20004;-70
2021/12/17 10:27:48;;;;;;;;;;;7.90;99.90;;;;;;5006497;28;19955;-71
2021/12/17 10:30:15;;;;;;;;;;;7.90;99.90;;;;;;4990308;28;20348;-68
2021/12/17 10:32:44;;;;;;;;;;;7.90;99.90;;;;;;4987064;28;19981;-70
2021/12/17 10:35:11;;;;;;;;;;;7.90;99.90;;;;;;4987360;28;19910;-72
2021/12/17 10:37:44;;;;;;;;;;;7.90;99.90;;;;;;4987177;28;19910;-70
2021/12/17 10:40:21;;;;;;;;;;;7.90;99.90;;;;;;5001852;28;19921;-73
2021/12/17 10:42:59;;;;;;;;;;;7.90;99.90;;;;;;4986825;28;19910;-72
2021/12/17 10:45:27;;;;;;;;;;;7.90;99.90;;;;;;5002249;28;19921;-71
2021/12/17 10:48:22;;;;;;;;;;;7.90;99.90;;;;;;4999414;28;19914;-69
2021/12/17 10:50:49;;;;;;;;;;;7.90;99.90;;;;;;5021117;28;20315;-71
2021/12/17 10:53:14;;;;;;;;;;;8.00;99.90;;;;;;5006528;28;19924;-71
2021/12/17 10:55:43;;;;;;;;;;;8.10;99.90;;;;;;5006370;28;19914;-69
2021/12/17 10:58:10;;;;;;;;;;;8.10;99.90;;;;;;5006600;28;20428;-69
2021/12/17 11:00:41;;;;;;;;;;;8.10;99.90;;;;;;5021291;28;19910;-72
2021/12/17 11:03:07;;;;;;;;;;;8.00;99.90;;;;;;5006571;28;19964;-69
2021/12/17 11:05:33;;;;;;;;;;;8.00;99.90;;;;;;5006406;28;20161;-67
2021/12/17 11:07:59;;;;;;;;;;;8.00;99.90;;;;;;4988393;28;20262;-70
2021/12/17 11:10:31;;;;;;;;;;;8.10;99.90;;;;;;4986667;28;19914;-71
2021/12/17 11:12:57;;;;;;;;;;;8.10;99.90;;;;;;5001738;28;19916;-70
2021/12/17 11:15:24;;;;;;;;;;;8.00;99.90;;;;;;4987128;28;19926;-70
2021/12/17 11:17:56;;;;;;;;;;;8.00;99.90;;;;;;4986912;28;20425;-70
2021/12/17 11:20:23;;;;;;;;;;;8.00;99.90;;;;;;4986921;28;19924;-69
2021/12/17 11:22:50;;;;;;;;;;;8.00;99.90;;;;;;4987930;28;20071;-74
2021/12/17 11:25:17;;;;;;;;;;;7.90;99.90;;;;;;4994859;28;20517;-69
2021/12/17 11:27:42;;;;;;;;;;;7.90;99.90;;;;;;5006523;28;19910;-70
2021/12/17 11:30:11;;;;;;;;;;;7.90;99.90;;;;;;4993888;28;19921;-69
2021/12/17 11:32:36;;;;;;;;;;;7.90;99.90;;;;;;4986911;28;20447;-68
2021/12/17 11:35:03;;;;;;;;;;;8.00;99.90;;;;;;5002175;28;19910;-72
2021/12/17 11:37:29;;;;;;;;;;;8.10;99.90;;;;;;5002063;28;19909;-70
2021/12/17 11:39:57;;;;;;;;;;;8.10;99.90;;;;;;4987057;28;20312;-69
2021/12/17 11:42:29;;;;;;;;;;;8.10;99.90;;;;;;4985800;28;19937;-71
2021/12/17 11:47:40;;;;;;;;;;;8.10;99.90;;;;;;4993803;28;19916;-74
2021/12/17 11:50:08;;;;;;;;;;;8.10;99.90;;;;;;5000809;28;19914;-71
2021/12/17 11:52:40;;;;;;;;;;;8.10;99.90;;;;;;4986643;28;20011;-71
2021/12/17 11:55:22;;;;;;;;;;;8.00;99.90;;;;;;4986629;28;20214;-68
2021/12/17 11:57:49;;;;;;;;;;;7.90;99.90;;;;;;4986155;28;20001;-70
2021/12/17 12:00:16;;;;;;;;;;;8.00;99.90;;;;;;4985597;28;19917;-71
2021/12/17 12:02:53;;;;;;;;;;;8.00;99.90;;;;;;4985680;28;19910;-69
2021/12/17 12:05:36;;;;;;;;;;;7.90;99.90;;;;;;4999958;28;20084;-72
2021/12/17 12:08:20;;;;;;;;;;;7.90;99.90;;;;;;4985218;28;19909;-72
2021/12/17 12:11:01;;;;;;;;;;;7.90;99.90;;;;;;5000474;28;20315;-70
2021/12/17 12:13:40;;;;;;;;;;;8.00;99.90;;;;;;4985188;28;19916;-70
2021/12/17 12:16:07;;;;;;;;;;;8.00;99.90;;;;;;4986031;28;20351;-70
2021/12/17 12:18:53;;;;;;;;;;;7.90;99.90;;;;;;4987243;28;19921;-71
2021/12/17 12:21:23;;;;;;;;;;;8.00;99.90;;;;;;4985334;28;19914;-70
2021/12/17 12:23:50;;;;;;;;;;;8.00;99.90;;;;;;4999786;28;19910;-71
2021/12/17 12:26:20;;;;;;;;;;;8.00;99.90;;;;;;4998820;28;20201;-70
2021/12/17 12:29:05;;;;;;;;;;;8.00;99.90;;;;;;5001129;28;19957;-69
2021/12/17 12:31:32;;;;;;;;;;;8.00;99.90;;;;;;4996574;28;19910;-72
2021/12/17 12:34:05;;;;;;;;;;;8.00;99.90;;;;;;5000501;28;19984;-70
2021/12/17 12:36:46;;;;;;;;;;;8.00;99.90;;;;;;4985024;28;19910;-71
2021/12/17 12:39:30;;;;;;;;;;;8.00;99.90;;;;;;4987513;28;19957;-69
2021/12/17 12:41:58;;;;;;;;;;;8.00;99.90;;;;;;5004607;28;19965;-70
2021/12/17 12:44:39;;;;;;;;;;;8.10;99.90;;;;;;4987155;28;19910;-69
2021/12/17 12:47:05;;;;;;;;;;;8.20;99.90;;;;;;4998294;28;19917;-74
2021/12/17 12:49:42;;;;;;;;;;;8.20;99.90;;;;;;4995627;28;19983;-72
2021/12/17 12:52:23;;;;;;;;;;;8.20;99.90;;;;;;4989461;28;19910;-70
2021/12/17 12:54:49;;;;;;;;;;;8.20;99.90;;;;;;4992377;28;19913;-70
2021/12/17 12:57:24;;;;;;;;;;;8.20;99.90;;;;;;4990879;28;19910;-70
2021/12/17 12:59:54;;;;;;;;;;;8.10;99.90;;;;;;5006096;28;20322;-69
2021/12/17 13:02:20;;;;;;;;;;;8.00;99.90;;;;;;5006941;28;20308;-69
2021/12/17 13:04:46;;;;;;;;;;;8.00;99.90;;;;;;5008001;28;19920;-69
2021/12/17 13:07:14;;;;;;;;;;;7.90;99.90;;;;;;4999863;28;20023;-72
2021/12/17 13:09:43;;;;;;;;;;;7.90;99.90;;;;;;4988295;28;20419;-71
2021/12/17 13:12:10;;;;;;;;;;;7.90;99.90;;;;;;4993117;28;20401;-71
2021/12/17 13:14:42;;;;;;;;;;;7.90;99.90;;;;;;5008860;28;19917;-72
2021/12/17 13:17:39;;;;;;;;;;;7.90;99.90;;;;;;5007785;28;19921;-70
2021/12/17 13:20:31;;;;;;;;;;;8.00;99.90;;;;;;5008100;28;20361;-71
2021/12/17 13:23:00;;;;;;;;;;;7.90;99.90;;;;;;5008060;28;19913;-69
2021/12/17 13:25:27;;;;;;;;;;;7.90;99.90;;;;;;5008539;28;19913;-72
2021/12/17 13:27:53;;;;;;;;;;;7.90;99.90;;;;;;5008146;28;20237;-72
2021/12/17 13:30:25;;;;;;;;;;;8.00;99.90;;;;;;5008344;28;19971;-70
2021/12/17 13:32:52;;;;;;;;;;;7.90;99.90;;;;;;4995611;28;19949;-72
2021/12/17 13:35:17;;;;;;;;;;;7.90;99.90;;;;;;4989299;28;20355;-69
2021/12/17 13:37:43;;;;;;;;;;;8.00;99.90;;;;;;4988409;28;19917;-73
2021/12/17 13:40:10;;;;;;;;;;;8.00;99.90;;;;;;4988816;28;19910;-73
2021/12/17 13:42:40;;;;;;;;;;;7.90;99.90;;;;;;4988324;28;19921;-69
2021/12/17 13:45:06;;;;;;;;;;;7.90;99.90;;;;;;5002878;28;19920;-70
2021/12/17 13:47:33;;;;;;;;;;;7.90;99.90;;;;;;4988807;28;20058;-70
2021/12/17 13:50:07;;;;;;;;;;;7.80;99.90;;;;;;4987970;28;19918;-70
2021/12/17 13:52:35;;;;;;;;;;;7.80;99.90;;;;;;4988127;28;19987;-69
2021/12/17 13:55:02;;;;;;;;;;;7.80;99.90;;;;;;4987889;28;19944;-71
2021/12/17 13:57:28;;;;;;;;;;;7.80;99.90;;;;;;4988101;28;19972;-68
2021/12/17 14:00:06;;;;;;;;;;;7.80;99.90;;;;;;4988733;28;19916;-69
2021/12/17 14:02:33;;;;;;;;;;;7.90;99.90;;;;;;4988810;28;20383;-74
2021/12/17 14:04:58;;;;;;;;;;;7.90;99.90;;;;;;4987902;28;19921;-70
2021/12/17 14:07:29;;;;;;;;;;;7.80;99.90;;;;;;4999610;28;19972;-71
2021/12/17 14:09:56;;;;;;;;;;;7.80;99.90;;;;;;5007386;28;20379;-69
2021/12/17 14:12:31;;;;;;;;;;;7.80;99.90;;;;;;5009288;28;19914;-70
2021/12/17 14:15:01;;;;;;;;;;;7.80;99.90;;;;;;5024109;28;19917;-70
2021/12/17 14:17:34;;;;;;;;;;;7.80;99.90;;;;;;5008819;28;20273;-69
2021/12/17 14:20:06;;;;;;;;;;;7.80;99.90;;;;;;5010043;28;19917;-68
2021/12/17 14:22:33;;;;;;;;;;;7.80;99.90;;;;;;5023850;28;19924;-69
2021/12/17 14:24:59;;;;;;;;;;;7.80;99.90;;;;;;5010734;28;20019;-70
2021/12/17 14:27:57;;;;;;;;;;;7.80;99.90;;;;;;5009467;28;19972;-69
2021/12/17 14:30:24;;;;;;;;;;;7.80;99.90;;;;;;4975516;28;19921;-71
2021/12/17 14:32:49;;;;;;;;;;;7.80;99.90;;;;;;4994902;28;19910;-70
2021/12/17 14:35:15;;;;;;;;;;;7.80;99.90;;;;;;4988029;28;19910;-70
2021/12/17 14:37:48;;;;;;;;;;;7.80;99.90;;;;;;5002931;28;19935;-70
2021/12/17 14:40:29;;;;;;;;;;;7.90;99.90;;;;;;4986730;28;19910;-68
2021/12/17 14:42:57;;;;;;;;;;;7.90;99.90;;;;;;4994510;28;20446;-70
2021/12/17 14:45:27;;;;;;;;;;;7.90;99.90;;;;;;4986978;28;19910;-71
2021/12/17 14:47:59;;;;;;;;;;;7.90;99.90;;;;;;4987955;28;19909;-72
2021/12/17 15:01:39;;;;;;;;;;;7.90;99.90;;;;;;4988658;28;20368;-68
2021/12/17 15:04:04;;;;;;;;;;;7.80;99.90;;;;;;4987474;28;19910;-69
2021/12/17 15:06:29;;;;;;;;;;;7.90;99.90;;;;;;4988260;28;20001;-69
2021/12/17 15:08:57;;;;;;;;;;;7.90;99.90;;;;;;4990042;28;19996;-69
2021/12/17 15:11:36;;;;;;;;;;;7.90;99.90;;;;;;5004640;28;20356;-70
2021/12/17 15:14:02;;;;;;;;;;;7.90;99.90;;;;;;4990750;28;19909;-69
2021/12/17 15:16:27;;;;;;;;;;;7.90;99.90;;;;;;4990096;28;19976;-69
2021/12/17 15:18:53;;;;;;;;;;;7.80;99.90;;;;;;4990624;28;20106;-68
2021/12/17 15:21:18;;;;;;;;;;;7.80;99.90;;;;;;4990150;28;19964;-70
2021/12/17 15:23:44;;;;;;;;;;;7.80;99.90;;;;;;4988415;28;19914;-68
2021/12/17 15:26:09;;;;;;;;;;;7.80;99.90;;;;;;4989115;28;19921;-69
2021/12/17 15:28:35;;;;;;;;;;;7.90;99.90;;;;;;4988557;28;19949;-71
2021/12/17 15:31:04;;;;;;;;;;;7.90;99.90;;;;;;5006910;28;19928;-71
2021/12/17 15:33:30;;;;;;;;;;;7.90;99.90;;;;;;5022606;28;19920;-68
2021/12/17 15:35:55;;;;;;;;;;;7.90;99.90;;;;;;5007526;28;19914;-70
2021/12/17 15:38:23;;;;;;;;;;;8.00;99.90;;;;;;5010531;28;20004;-68
2021/12/17 15:40:49;;;;;;;;;;;8.00;99.90;;;;;;5007422;28;20354;-72
2021/12/17 15:43:15;;;;;;;;;;;8.00;99.90;;;;;;5008996;28;19913;-71
2021/12/17 15:45:42;;;;;;;;;;;8.10;99.90;;;;;;5008996;28;20016;-70
2021/12/17 15:48:09;;;;;;;;;;;8.10;99.90;;;;;;5006179;28;19917;-70
2021/12/17 15:50:34;;;;;;;;;;;8.10;99.90;;;;;;5006507;28;20308;-71
2021/12/17 15:53:00;;;;;;;;;;;8.20;99.90;;;;;;5007117;28;20145;-71
2021/12/17 15:55:27;;;;;;;;;;;8.20;99.90;;;;;;5008106;28;19920;-68
2021/12/17 15:57:57;;;;;;;;;;;8.10;99.90;;;;;;5008686;28;19965;-69
2021/12/17 16:00:24;;;;;;;;;;;8.20;99.90;;;;;;5008411;28;19909;-71
2021/12/17 16:02:50;;;;;;;;;;;8.10;99.90;;;;;;5007812;28;19909;-69
2021/12/17 16:05:16;;;;;;;;;;;8.10;99.90;;;;;;5007446;28;19916;-70
2021/12/17 16:07:43;;;;;;;;;;;8.20;99.90;;;;;;5005356;28;19944;-71
2021/12/17 16:18:17;;;;;;;;;;;8.10;99.90;;;;;;4993736;28;19916;-70
2021/12/17 16:23:33;;;;;;;;;;;8.20;99.90;;;;;;5014374;28;19929;-71
2021/12/17 16:25:59;;;;;;;;;;;8.20;99.90;;;;;;5009684;28;20342;-70
2021/12/17 16:28:25;;;;;;;;;;;8.20;99.90;;;;;;5007510;28;19913;-70
2021/12/17 16:30:50;;;;;;;;;;;8.10;99.90;;;;;;4997369;28;19916;-70
2021/12/17 16:33:16;;;;;;;;;;;8.30;99.90;;;;;;5009963;28;19913;-69
2021/12/17 16:35:41;;;;;;;;;;;8.30;99.90;;;;;;5021644;28;20218;-66
2021/12/17 16:38:07;;;;;;;;;;;8.30;99.90;;;;;;5008284;28;19909;-68
2021/12/17 16:40:33;;;;;;;;;;;8.20;99.90;;;;;;5006510;28;19916;-70
2021/12/17 16:42:59;;;;;;;;;;;8.20;99.90;;;;;;5005357;28;19913;-70
2021/12/17 16:45:33;;;;;;;;;;;8.30;99.90;;;;;;5006107;28;19917;-69
2021/12/17 16:48:04;;;;;;;;;;;8.40;99.90;;;;;;5006106;28;20588;-71
2021/12/17 16:50:31;;;;;;;;;;;8.40;99.90;;;;;;5006431;28;19962;-66
2021/12/17 16:52:57;;;;;;;;;;;8.50;99.90;;;;;;5005877;28;19972;-69
2021/12/17 16:55:23;;;;;;;;;;;8.50;99.90;;;;;;5005449;28;19975;-68
2021/12/17 16:57:49;;;;;;;;;;;8.50;99.90;;;;;;5004734;28;19914;-67
2021/12/17 17:00:15;;;;;;;;;;;8.40;99.90;;;;;;5002208;28;19928;-69
2021/12/17 17:02:40;;;;;;;;;;;8.40;99.90;;;;;;5004018;28;20321;-67
2021/12/17 17:05:06;;;;;;;;;;;8.40;99.90;;;;;;5003450;28;19916;-70
2021/12/17 17:07:32;;;;;;;;;;;8.40;99.90;;;;;;5000999;28;19910;-72
2021/12/17 17:09:57;;;;;;;;;;;8.50;99.90;;;;;;4997858;28;19918;-69
2021/12/17 17:12:26;;;;;;;;;;;8.50;99.90;;;;;;4995884;28;19913;-69
2021/12/17 17:14:51;;;;;;;;;;;8.60;99.90;;;;;;5000490;28;20429;-68
2021/12/17 17:17:16;;;;;;;;;;;8.50;99.90;;;;;;5005584;28;19913;-69
2021/12/17 17:19:42;;;;;;;;;;;8.50;99.90;;;;;;5004685;28;19960;-68
2021/12/17 17:22:07;;;;;;;;;;;8.50;99.90;;;;;;5019178;28;20302;-69
2021/12/17 17:24:33;;;;;;;;;;;8.50;99.90;;;;;;5003029;28;19928;-68
2021/12/17 17:26:59;;;;;;;;;;;8.60;99.90;;;;;;5003125;28;19913;-69
2021/12/17 17:29:24;;;;;;;;;;;8.50;99.90;;;;;;5002731;28;20192;-71
2021/12/17 17:31:50;;;;;;;;;;;8.50;99.90;;;;;;5002073;28;19913;-67
2021/12/17 17:34:15;;;;;;;;;;;8.50;99.90;;;;;;5001423;28;19967;-69
2021/12/17 17:36:42;;;;;;;;;;;8.40;99.90;;;;;;5002519;28;20295;-70
2021/12/17 17:39:10;;;;;;;;;;;8.50;99.90;;;;;;5004487;28;20195;-68